Time;durP1;ratioP1;P1;durP2;ratioP2;P2;SDS_P1;SDS_P2;PMS_P1;PMS_P2;Temp;Humidity;BMP_temperature;BMP_pressure;BME280_temperature;BME280_humidity;BME280_pressure;Samples;Min_cycle;Max_cycle;Signal;HPM_P1;HPM_P2
2023/09/30 00:01:21;;;;;;;11.00;4.97;;;;;;;14.86;100.00;95138.09;5055016;28;20028;-80
2023/09/30 00:03:47;;;;;;;16.70;5.65;;;;;;;14.93;100.00;95128.03;5055055;28;20425;-80
2023/09/30 00:06:13;;;;;;;11.07;5.30;;;;;;;15.06;100.00;95126.59;5054906;28;20058;-80
2023/09/30 00:08:39;;;;;;;7.95;4.95;;;;;;;15.02;100.00;95129.00;5054518;28;20036;-80
2023/09/30 00:11:05;;;;;;;7.53;4.80;;;;;;;14.97;100.00;95132.47;5055296;28;20357;-80
2023/09/30 00:13:31;;;;;;;14.50;4.97;;;;;;;15.01;100.00;95129.31;5038532;28;20025;-80
2023/09/30 00:15:57;;;;;;;13.30;5.05;;;;;;;15.02;100.00;95129.00;5038465;28;20029;-80
2023/09/30 00:18:22;;;;;;;11.15;4.90;;;;;;;14.94;100.00;95129.63;5053205;28;20090;-81
2023/09/30 00:20:49;;;;;;;11.98;5.07;;;;;;;14.93;100.00;95128.03;5038949;28;20742;-80
2023/09/30 00:23:15;;;;;;;7.85;4.45;;;;;;;14.92;100.00;95123.81;5055850;28;20035;-80
2023/09/30 00:25:40;;;;;;;9.05;4.72;;;;;;;14.66;100.00;95134.53;5038125;28;20115;-80
2023/09/30 00:28:06;;;;;;;14.57;5.82;;;;;;;14.41;100.00;95130.97;5054142;28;20083;-81
2023/09/30 00:30:31;;;;;;;9.15;4.95;;;;;;;14.40;100.00;95129.41;5054518;28;20426;-80
2023/09/30 00:32:57;;;;;;;8.75;4.70;;;;;;;14.49;100.00;95119.88;5038046;28;20044;-80
2023/09/30 00:35:22;;;;;;;14.52;4.82;;;;;;;14.65;100.00;95114.50;5038009;28;20037;-80
2023/09/30 00:37:47;;;;;;;8.63;5.20;;;;;;;14.74;100.00;95112.84;5054041;28;20492;-80
2023/09/30 00:40:13;;;;;;;14.57;5.40;;;;;;;14.51;100.00;95112.47;5054447;28;20032;-80
2023/09/30 00:42:39;;;;;;;9.70;5.18;;;;;;;14.34;100.00;95106.75;5055431;28;20058;-80
2023/09/30 00:45:06;;;;;;;10.88;4.88;;;;;;;14.20;100.00;95110.00;5037881;28;20040;-81
2023/09/30 00:47:33;;;;;;;9.25;4.95;;;;;;;14.25;100.00;95109.19;5053728;28;20028;-80
2023/09/30 00:49:59;;;;;;;12.38;4.93;;;;;;;14.34;100.00;95109.38;5054035;28;20041;-80
2023/09/30 00:52:24;;;;;;;12.93;5.15;;;;;;;14.58;100.00;95117.44;5054228;28;20070;-80
2023/09/30 00:54:50;;;;;;;7.82;4.68;;;;;;;14.48;100.00;95110.34;5054051;28;20036;-80
2023/09/30 00:57:18;;;;;;;8.88;4.65;;;;;;;14.42;100.00;95107.00;5054290;28;20033;-80
2023/09/30 00:59:43;;;;;;;7.88;4.88;;;;;;;14.50;100.00;95107.47;5056755;28;20450;-80
2023/09/30 01:02:09;;;;;;;11.88;4.47;;;;;;;14.51;100.00;95115.09;5055762;28;20033;-80
2023/09/30 01:04:35;;;;;;;10.55;4.93;;;;;;;14.62;100.00;95118.47;5056797;28;20115;-80
2023/09/30 01:07:00;;;;;;;16.75;5.05;;;;;;;14.53;100.00;95123.53;5056577;28;20033;-80
2023/09/30 01:09:25;;;;;;;11.07;4.47;;;;;;;14.23;100.00;95122.63;5055557;28;20029;-80
2023/09/30 01:11:51;;;;;;;9.43;4.43;;;;;;;14.43;100.00;95128.84;5055515;28;20107;-80
2023/09/30 01:14:28;;;;;;;13.65;5.22;;;;;;;14.43;100.00;95128.84;5055507;28;20032;-80
2023/09/30 01:16:54;;;;;;;8.18;5.35;;;;;;;14.46;100.00;95119.63;5055440;28;20025;-80
2023/09/30 01:19:20;;;;;;;10.18;4.88;;;;;;;14.56;100.00;95122.16;5039021;28;20316;-80
2023/09/30 01:21:48;;;;;;;12.40;4.75;;;;;;;14.56;100.00;95120.34;5055439;28;20043;-80
2023/09/30 01:24:17;;;;;;;9.50;4.40;;;;;;;14.70;100.00;95117.88;5055440;28;20032;-81
2023/09/30 01:26:43;;;;;;;10.68;4.75;;;;;;;14.89;100.00;95114.59;5055349;28;20029;-80
2023/09/30 01:29:10;;;;;;;13.95;4.70;;;;;;;15.13;100.00;95109.38;5055627;28;20434;-80
2023/09/30 01:31:37;;;;;;;9.43;4.68;;;;;;;15.09;100.00;95105.75;5055366;28;20025;-81
2023/09/30 01:34:02;;;;;;;7.05;3.80;;;;;;;15.03;100.00;95109.47;5038602;28;20212;-80
2023/09/30 01:36:28;;;;;;;9.77;5.07;;;;;;;14.96;100.00;95106.38;5056459;28;20036;-80
2023/09/30 01:38:54;;;;;;;12.02;4.70;;;;;;;14.94;100.00;95101.38;5055097;28;20028;-80
2023/09/30 01:41:19;;;;;;;14.52;4.68;;;;;;;14.92;100.00;95102.69;5030312;28;20079;-80
2023/09/30 01:43:44;;;;;;;8.70;4.38;;;;;;;14.96;100.00;95106.38;5035249;28;20419;-80
2023/09/30 01:46:10;;;;;;;8.93;4.63;;;;;;;14.88;100.00;95094.56;5035250;28;20025;-81
2023/09/30 01:48:35;;;;;;;6.22;4.18;;;;;;;14.92;100.00;95087.66;5018534;28;20022;-80
2023/09/30 01:51:01;;;;;;;8.00;4.60;;;;;;;14.91;100.00;95086.09;5036400;28;20350;-80
2023/09/30 01:53:26;;;;;;;6.70;4.45;;;;;;;14.79;100.00;95083.81;5035139;28;20025;-81
2023/09/30 01:55:58;;;;;;;12.48;4.78;;;;;;;14.81;100.00;95094.09;5035271;28;20059;-80
2023/09/30 01:58:25;;;;;;;7.97;4.82;;;;;;;14.64;100.00;95091.81;5034721;28;20033;-80
2023/09/30 02:00:51;;;;;;;6.35;4.40;;;;;;;14.54;100.00;95100.56;5018987;28;20529;-80
2023/09/30 02:03:17;;;;;;;10.63;4.85;;;;;;;14.11;100.00;95091.31;5018931;28;20034;-80
2023/09/30 02:05:43;;;;;;;7.82;4.55;;;;;;;14.10;100.00;95084.47;5018622;28;20079;-80
2023/09/30 02:08:09;;;;;;;10.50;4.32;;;;;;;14.23;100.00;95084.94;5035107;28;20033;-80
2023/09/30 02:10:34;;;;;;;21.67;5.63;;;;;;;14.24;100.00;95082.03;5034976;28;20043;-80
2023/09/30 02:13:00;;;;;;;9.02;4.30;;;;;;;14.31;100.00;95094.91;5035175;28;20132;-80
2023/09/30 02:15:25;;;;;;;15.18;5.30;;;;;;;14.51;100.00;95088.75;5035086;28;20025;-80
2023/09/30 02:17:51;;;;;;;12.90;5.15;;;;;;;14.25;100.00;95080.19;5035305;28;20025;-80
2023/09/30 02:20:19;;;;;;;7.13;4.53;;;;;;;14.21;100.00;95082.59;5034866;28;20080;-80
2023/09/30 02:22:46;;;;;;;9.90;4.90;;;;;;;14.21;100.00;95079.16;5054119;28;20028;-80
2023/09/30 02:25:12;;;;;;;6.78;4.30;;;;;;;14.17;100.00;95073.63;5054469;28;20103;-81
2023/09/30 02:27:39;;;;;;;11.27;5.15;;;;;;;14.18;100.00;95074.44;5054087;28;20029;-80
2023/09/30 02:30:05;;;;;;;6.38;4.18;;;;;;;14.03;100.00;95062.13;5054453;28;20021;-80
2023/09/30 02:32:33;;;;;;;7.22;4.40;;;;;;;14.08;100.00;95070.03;5037605;28;20025;-80
2023/09/30 02:34:58;;;;;;;9.30;4.70;;;;;;;14.12;100.00;95073.69;5050998;28;20453;-80
2023/09/30 02:37:24;;;;;;;13.13;4.65;;;;;;;14.20;100.00;95070.47;5054264;28;20052;-80
2023/09/30 02:39:49;;;;;;;14.32;4.90;;;;;;;14.13;100.00;95067.34;5054632;28;20021;-80
2023/09/30 02:42:15;;;;;;;9.55;5.07;;;;;;;13.99;100.00;95069.81;5040855;28;20017;-80
2023/09/30 02:44:40;;;;;;;7.53;4.80;;;;;;;13.85;100.00;95064.31;5058276;28;20062;-80
2023/09/30 02:47:06;;;;;;;12.60;4.65;;;;;;;13.86;100.00;95063.25;5057790;28;20021;-80
2023/09/30 02:49:35;;;;;;;8.75;4.90;;;;;;;13.94;100.00;95065.34;5058041;28;20029;-80
2023/09/30 02:52:01;;;;;;;11.18;4.50;;;;;;;13.89;100.00;95077.75;5059281;28;20087;-80
2023/09/30 02:54:27;;;;;;;15.73;5.20;;;;;;;13.87;100.00;95079.88;5058022;28;20116;-80
2023/09/30 02:56:52;;;;;;;9.60;5.00;;;;;;;13.93;100.00;95073.50;5057921;28;20133;-80
2023/09/30 02:59:18;;;;;;;10.77;4.50;;;;;;;13.87;100.00;95070.09;5058224;28;20028;-80
2023/09/30 03:01:44;;;;;;;9.90;4.88;;;;;;;13.91;100.00;95071.13;5057847;28;20028;-80
2023/09/30 03:04:12;;;;;;;14.68;4.28;;;;;;;13.95;100.00;95069.56;5057958;28;20021;-80
2023/09/30 03:06:38;;;;;;;14.55;4.72;;;;;;;13.96;100.00;95068.50;5041416;28;20028;-80
2023/09/30 03:09:04;;;;;;;8.50;4.72;;;;;;;14.38;100.00;95070.91;5057576;28;20047;-80
2023/09/30 03:11:31;;;;;;;8.60;4.55;;;;;;;14.43;100.00;95073.50;5041250;28;20025;-80
2023/09/30 03:13:57;;;;;;;15.68;4.72;;;;;;;14.45;100.00;95066.09;5074592;28;20025;-80
2023/09/30 03:16:24;;;;;;;9.40;4.57;;;;;;;14.65;100.00;95056.47;5057692;28;20025;-80
2023/09/30 03:18:50;;;;;;;10.85;4.78;;;;;;;14.55;100.00;95054.69;5057068;28;20033;-80
2023/09/30 03:21:16;;;;;;;7.95;4.95;;;;;;;14.61;100.00;95055.44;5041230;28;20029;-80
2023/09/30 03:23:42;;;;;;;13.07;4.65;;;;;;;14.80;100.00;95053.75;5057360;28;20320;-80
2023/09/30 03:26:09;;;;;;;12.63;4.50;;;;;;;14.70;100.00;95056.44;5041101;28;20051;-80
2023/09/30 03:28:37;;;;;;;7.03;4.05;;;;;;;14.78;100.00;95055.06;5041199;28;20020;-81
2023/09/30 03:31:04;;;;;;;12.10;4.57;;;;;;;15.02;100.00;95051.72;5057316;28;20408;-80
2023/09/30 03:33:31;;;;;;;5.47;3.95;;;;;;;15.06;100.00;95056.16;5057496;28;20344;-80
2023/09/30 03:35:58;;;;;;;12.38;4.57;;;;;;;15.07;100.00;95056.94;5057364;28;20032;-80
2023/09/30 03:38:23;;;;;;;7.60;4.10;;;;;;;15.05;100.00;95054.56;5056892;28;20036;-80
2023/09/30 03:40:48;;;;;;;9.13;5.15;;;;;;;15.02;100.00;95049.84;5057221;28;20024;-80
2023/09/30 03:43:14;;;;;;;8.70;4.25;;;;;;;14.84;100.00;95059.22;5058280;28;20385;-80
2023/09/30 03:45:41;;;;;;;8.50;4.60;;;;;;;14.89;100.00;95056.56;5057112;28;20036;-80
2023/09/30 03:48:06;;;;;;;8.35;4.13;;;;;;;14.82;100.00;95053.44;5057424;28;20033;-80
2023/09/30 03:50:32;;;;;;;10.93;4.13;;;;;;;14.54;100.00;95053.09;5056751;28;20037;-80
2023/09/30 03:53:08;;;;;;;12.25;4.68;;;;;;;14.40;100.00;95056.38;5056597;28;20127;-80
2023/09/30 03:55:33;;;;;;;11.63;4.88;;;;;;;13.96;100.00;95052.69;5040872;28;20033;-80
2023/09/30 03:57:59;;;;;;;14.27;4.82;;;;;;;13.85;100.00;95053.78;5057967;28;20033;-81
2023/09/30 04:00:25;;;;;;;12.00;5.00;;;;;;;13.79;100.00;95058.28;5057027;28;20028;-80
2023/09/30 04:02:57;;;;;;;25.27;4.80;;;;;;;13.70;100.00;95052.78;5056793;28;20025;-80
2023/09/30 04:05:28;;;;;;;7.45;4.80;;;;;;;13.77;100.00;95051.69;5056844;28;20048;-80
2023/09/30 04:07:54;;;;;;;8.40;4.40;;;;;;;13.67;100.00;95052.53;5057523;28;20052;-80
2023/09/30 04:10:19;;;;;;;12.75;4.63;;;;;;;13.70;100.00;95044.09;5040141;28;20028;-80
2023/09/30 04:12:45;;;;;;;8.27;4.32;;;;;;;13.67;100.00;95040.19;5040094;28;20508;-80
2023/09/30 04:15:12;;;;;;;10.55;4.78;;;;;;;13.77;100.00;95049.88;5056456;28;20064;-80
2023/09/30 04:17:38;;;;;;;9.18;4.10;;;;;;;13.82;100.00;95051.69;5056436;28;20036;-80
2023/09/30 04:20:15;;;;;;;7.15;4.47;;;;;;;13.78;100.00;95054.06;5056284;28;20078;-80
2023/09/30 04:22:41;;;;;;;19.85;4.82;;;;;;;13.84;100.00;95057.47;5056526;28;20343;-80
2023/09/30 04:25:10;;;;;;;6.95;4.55;;;;;;;13.60;100.00;95063.34;5056312;28;20036;-80
2023/09/30 04:27:36;;;;;;;11.15;4.82;;;;;;;13.63;100.00;95065.47;5040266;28;20028;-80
2023/09/30 04:30:08;;;;;;;9.63;4.65;;;;;;;13.60;100.00;95060.72;5056162;28;20025;-81
2023/09/30 04:32:35;;;;;;;12.75;5.00;;;;;;;13.47;100.00;95069.19;5040670;28;20029;-81
2023/09/30 04:35:00;;;;;;;12.07;4.45;;;;;;;13.45;100.00;95060.78;5057324;28;20385;-81
2023/09/30 04:37:25;;;;;;;10.43;5.00;;;;;;;13.40;100.00;95069.44;5056158;28;20078;-81
2023/09/30 04:39:53;;;;;;;8.25;4.93;;;;;;;13.29;100.00;95073.94;5056026;28;20502;-81
2023/09/30 04:42:18;;;;;;;18.23;7.70;;;;;;;13.27;100.00;95068.97;5056011;28;20106;-80
2023/09/30 04:44:44;;;;;;;14.98;7.13;;;;;;;13.27;100.00;95065.53;5056038;28;20513;-81
2023/09/30 04:47:09;;;;;;;12.88;7.35;;;;;;;13.25;100.00;95067.66;5056003;28;20023;-81
2023/09/30 04:49:35;;;;;;;13.27;7.10;;;;;;;13.34;100.00;95071.31;5039371;28;20477;-80
2023/09/30 04:52:01;;;;;;;9.93;5.65;;;;;;;13.34;100.00;95063.44;5055902;28;20021;-80
2023/09/30 04:54:26;;;;;;;14.68;4.75;;;;;;;13.42;100.00;95060.22;5039410;28;20028;-80
2023/09/30 04:56:51;;;;;;;16.77;5.03;;;;;;;13.37;100.00;95064.72;5055708;28;20116;-80
2023/09/30 04:59:17;;;;;;;14.70;5.18;;;;;;;13.41;100.00;95066.56;5055662;28;20457;-80
2023/09/30 05:01:42;;;;;;;10.75;5.32;;;;;;;13.69;100.00;95074.91;5039268;28;20066;-81
2023/09/30 05:04:07;;;;;;;8.38;4.22;;;;;;;14.09;100.00;95074.22;5055166;28;20339;-81
2023/09/30 05:06:33;;;;;;;7.63;4.80;;;;;;;14.24;100.00;95074.13;5055626;28;20024;-81
2023/09/30 05:08:59;;;;;;;9.15;3.70;;;;;;;14.31;100.00;95083.56;5055159;28;20021;-80
2023/09/30 05:11:25;;;;;;;8.90;3.95;;;;;;;14.24;100.00;95083.88;5039353;28;20381;-81
2023/09/30 05:13:50;;;;;;;9.52;4.68;;;;;;;14.31;100.00;95088.84;5038817;28;20032;-80
2023/09/30 05:16:17;;;;;;;13.93;4.43;;;;;;;14.22;100.00;95088.63;5039205;28;20327;-80
2023/09/30 05:18:43;;;;;;;10.38;3.83;;;;;;;14.22;100.00;95088.63;5038418;28;20032;-81
2023/09/30 05:21:08;;;;;;;6.30;3.55;;;;;;;14.19;100.00;95084.69;5055445;28;20021;-81
2023/09/30 05:23:34;;;;;;;9.50;4.40;;;;;;;14.20;100.00;95085.50;5055437;28;20029;-81
2023/09/30 05:26:00;;;;;;;7.65;4.40;;;;;;;14.04;100.00;95079.50;5039048;28;20016;-81
2023/09/30 05:28:26;;;;;;;7.75;4.00;;;;;;;14.12;100.00;95073.69;5056474;28;20029;-80
2023/09/30 05:30:53;;;;;;;11.02;4.10;;;;;;;14.22;100.00;95089.44;5055157;28;20036;-80
2023/09/30 05:33:18;;;;;;;5.85;4.03;;;;;;;14.12;100.00;95085.00;5055665;28;20028;-80
2023/09/30 05:35:43;;;;;;;7.70;3.92;;;;;;;14.16;100.00;95087.88;5055174;28;20029;-80
2023/09/30 05:38:10;;;;;;;10.75;4.45;;;;;;;14.23;100.00;95088.38;5038400;28;20021;-80
2023/09/30 05:40:36;;;;;;;11.68;4.45;;;;;;;14.09;100.00;95080.28;5055302;28;20333;-80
2023/09/30 05:43:01;;;;;;;6.82;4.18;;;;;;;14.16;100.00;95079.97;5055111;28;20025;-80
2023/09/30 05:45:27;;;;;;;9.15;3.97;;;;;;;14.35;100.00;95084.63;5053230;28;20083;-81
2023/09/30 05:47:56;;;;;;;7.38;4.10;;;;;;;14.40;100.00;95084.59;5055655;28;20029;-80
2023/09/30 05:50:24;;;;;;;7.97;4.30;;;;;;;14.45;100.00;95087.19;5055116;28;20032;-80
2023/09/30 05:52:57;;;;;;;8.65;3.88;;;;;;;14.60;100.00;95081.03;5055244;28;20028;-81
2023/09/30 05:55:22;;;;;;;11.38;4.63;;;;;;;14.74;100.00;95086.47;5055511;28;20029;-80
2023/09/30 05:57:49;;;;;;;13.52;4.60;;;;;;;14.65;100.00;95080.97;5055002;28;20036;-81
2023/09/30 06:00:20;;;;;;;8.50;4.50;;;;;;;14.75;100.00;95082.78;5055276;28;20032;-81
2023/09/30 06:02:51;;;;;;;6.68;3.88;;;;;;;14.98;100.00;95085.78;5055061;28;20120;-81
2023/09/30 06:05:18;;;;;;;10.73;3.95;;;;;;;15.15;100.00;95089.84;5054866;28;20027;-81
2023/09/30 06:07:45;;;;;;;11.05;4.20;;;;;;;15.25;100.00;95087.13;5054952;28;20049;-79
2023/09/30 06:10:11;;;;;;;9.85;4.15;;;;;;;15.34;100.00;95088.06;5054872;28;20087;-80
2023/09/30 06:12:36;;;;;;;10.63;3.90;;;;;;;15.48;100.00;95090.84;5054897;28;20450;-79
2023/09/30 06:15:02;;;;;;;7.28;3.75;;;;;;;15.54;100.00;95092.34;5055228;28;20056;-79
2023/09/30 06:17:28;;;;;;;6.00;3.50;;;;;;;15.32;100.00;95100.00;5057967;28;20032;-79
2023/09/30 06:19:53;;;;;;;6.15;3.58;;;;;;;15.43;100.00;95103.31;5058610;28;20048;-79
2023/09/30 06:22:21;;;;;;;6.80;3.45;;;;;;;15.70;100.00;95102.75;5060116;28;20032;-79
2023/09/30 06:24:47;;;;;;;8.35;3.72;;;;;;;15.86;100.00;95100.72;5052361;28;20033;-79
2023/09/30 06:27:13;;;;;;;8.70;4.00;;;;;;;16.01;100.00;95101.66;5058443;28;20128;-79
2023/09/30 06:29:40;;;;;;;7.03;3.60;;;;;;;16.12;100.00;95103.09;5055896;28;20029;-79
2023/09/30 06:32:07;;;;;;;7.93;3.95;;;;;;;16.19;100.00;95110.69;5045609;28;20025;-79
2023/09/30 06:34:34;;;;;;;6.60;3.35;;;;;;;16.30;100.00;95117.41;5046385;28;20434;-79
2023/09/30 06:36:59;;;;;;;7.07;4.15;;;;;;;16.44;100.00;95116.69;5051750;28;20025;-79
2023/09/30 06:39:25;;;;;;;11.68;4.13;;;;;;;16.45;100.00;95121.69;5051194;28;20025;-79
2023/09/30 06:41:51;;;;;;;6.03;3.15;;;;;;;16.43;100.00;95129.13;5056019;28;20334;-79
2023/09/30 06:44:16;;;;;;;9.30;3.70;;;;;;;16.64;100.00;95126.97;5057631;28;20029;-79
2023/09/30 06:46:42;;;;;;;10.95;4.32;;;;;;;16.78;100.00;95124.38;5053886;28;20345;-79
2023/09/30 06:49:08;;;;;;;5.80;3.53;;;;;;;16.87;100.00;95121.91;5059352;28;20446;-79
2023/09/30 06:51:35;;;;;;;7.28;3.90;;;;;;;16.95;100.00;95125.75;5024731;28;20056;-78
2023/09/30 06:54:01;;;;;;;10.23;4.05;;;;;;;17.01;100.00;95124.59;5046399;28;20040;-79
2023/09/30 06:56:26;;;;;;;8.13;3.78;;;;;;;17.03;100.00;95133.03;5056834;28;20107;-79
2023/09/30 06:58:52;;;;;;;6.75;3.65;;;;;;;17.17;100.00;95127.00;5056973;28;20446;-79
2023/09/30 07:01:17;;;;;;;8.50;3.92;;;;;;;17.28;100.00;95128.41;5025879;28;20036;-79
2023/09/30 07:03:45;;;;;;;10.35;4.13;;;;;;;17.31;100.00;95130.47;5041640;28;20434;-79
2023/09/30 07:06:10;;;;;;;5.90;4.00;;;;;;;17.36;100.00;95125.09;5057893;28;20071;-78
2023/09/30 07:08:36;;;;;;;9.68;3.90;;;;;;;17.27;100.00;95121.53;5073993;28;20028;-79
2023/09/30 07:11:05;;;;;;;7.63;3.70;;;;;;;17.40;100.00;95116.56;5057675;28;20071;-78
2023/09/30 07:13:32;;;;;;;9.68;4.03;;;;;;;17.40;100.00;95117.34;5041665;28;20087;-78
2023/09/30 07:15:58;;;;;;;6.28;4.10;;;;;;;17.50;100.00;95117.16;5059128;28;20045;-79
2023/09/30 07:18:24;;;;;;;7.70;4.10;;;;;;;17.50;100.00;95111.06;5057586;28;20386;-80
2023/09/30 07:20:51;;;;;;;7.05;4.18;;;;;;;17.58;100.00;95115.69;5057597;28;20036;-79
2023/09/30 07:23:18;;;;;;;7.47;3.70;;;;;;;17.59;100.00;95116.50;5051410;28;20025;-79
2023/09/30 07:25:44;;;;;;;11.75;4.18;;;;;;;17.75;100.00;95103.72;5055922;28;20111;-79
2023/09/30 07:28:11;;;;;;;8.45;4.40;;;;;;;17.68;100.00;95112.06;5058040;28;20434;-79
2023/09/30 07:30:37;;;;;;;7.30;3.85;;;;;;;17.72;100.00;95104.31;5057420;28;20025;-78
2023/09/30 07:33:03;;;;;;;8.98;4.10;;;;;;;17.62;100.00;95114.03;5057644;28;20438;-78
2023/09/30 07:35:28;;;;;;;6.97;4.55;;;;;;;17.72;100.00;95107.78;5053286;28;20082;-78
2023/09/30 07:37:53;;;;;;;6.63;4.00;;;;;;;17.83;100.00;95113.66;5057274;28;20112;-79
2023/09/30 07:40:19;;;;;;;7.65;4.07;;;;;;;17.88;100.00;95118.06;5057057;28;20341;-79
2023/09/30 07:42:44;;;;;;;7.80;4.18;;;;;;;18.06;100.00;95109.25;5058513;28;20111;-78
2023/09/30 07:45:11;;;;;;;13.48;4.22;;;;;;;18.15;100.00;95114.63;5057321;28;20025;-78
2023/09/30 07:47:36;;;;;;;7.85;4.03;;;;;;;18.31;100.00;95112.47;5040956;28;20398;-78
2023/09/30 07:50:06;;;;;;;7.82;4.53;;;;;;;18.06;100.00;95108.44;5040694;28;20060;-79
2023/09/30 07:52:31;;;;;;;8.32;4.63;;;;;;;18.31;100.00;95109.81;5057265;28;20021;-78
2023/09/30 07:54:57;;;;;;;10.10;4.20;;;;;;;18.42;100.00;95112.22;5040791;28;20311;-78
2023/09/30 07:57:22;;;;;;;7.18;4.07;;;;;;;18.56;100.00;95115.63;5057072;28;20035;-79
2023/09/30 07:59:48;;;;;;;9.13;4.50;;;;;;;18.57;100.00;95113.75;5058182;28;20422;-78
2023/09/30 08:02:14;;;;;;;13.18;3.85;;;;;;;18.84;100.00;95123.47;5040475;28;20028;-78
2023/09/30 08:04:39;;;;;;;9.20;3.75;;;;;;;18.99;98.80;95130.34;5056975;28;20025;-78
2023/09/30 08:07:04;;;;;;;11.70;3.65;;;;;;;18.93;100.00;95132.31;5056788;28;20461;-79
2023/09/30 08:09:30;;;;;;;5.35;3.58;;;;;;;19.10;100.00;95136.19;5057936;28;20036;-78
2023/09/30 08:11:56;;;;;;;7.60;4.13;;;;;;;19.11;100.00;95139.66;5056966;28;20445;-78
2023/09/30 08:14:21;;;;;;;5.82;3.70;;;;;;;19.23;100.00;95150.50;5040040;28;20045;-79
2023/09/30 08:16:49;;;;;;;8.15;4.30;;;;;;;19.38;100.00;95144.00;5049458;28;20316;-78
2023/09/30 08:19:14;;;;;;;7.75;3.90;;;;;;;19.56;100.00;95152.06;5057806;28;20051;-79
2023/09/30 08:21:40;;;;;;;10.32;4.40;;;;;;;19.60;99.20;95151.16;5056624;28;20020;-78
2023/09/30 08:24:05;;;;;;;14.02;4.50;;;;;;;19.56;92.37;95154.72;5050498;28;20029;-78
2023/09/30 08:26:31;;;;;;;8.65;4.50;;;;;;;19.73;89.44;95154.03;5044278;28;20435;-78
2023/09/30 08:28:56;;;;;;;6.75;3.78;;;;;;;19.96;92.00;95159.31;5052439;28;20115;-78
2023/09/30 08:31:22;;;;;;;17.42;4.63;;;;;;;20.03;97.06;95151.66;5036422;28;20029;-78
2023/09/30 08:33:47;;;;;;;20.60;4.97;;;;;;;20.24;94.38;95143.91;5036192;28;20063;-78
2023/09/30 08:36:13;;;;;;;9.68;4.45;;;;;;;20.33;91.90;95146.59;5037296;28;20052;-78
2023/09/30 08:38:40;;;;;;;12.68;4.75;;;;;;;20.55;93.04;95151.00;5027470;28;20037;-78
2023/09/30 08:41:07;;;;;;;8.48;4.03;;;;;;;20.73;87.70;95151.00;5050097;28;20476;-79
2023/09/30 08:43:38;;;;;;;9.07;4.13;;;;;;;20.85;78.98;95148.53;5039956;28;20035;-78
2023/09/30 08:46:04;;;;;;;11.45;4.30;;;;;;;21.04;80.79;95140.22;5055411;28;20350;-79
2023/09/30 08:48:32;;;;;;;8.90;3.88;;;;;;;21.11;77.32;95149.63;5055542;28;20024;-81
2023/09/30 08:50:59;;;;;;;12.95;4.28;;;;;;;21.21;77.88;95151.19;5043636;28;20035;-82
2023/09/30 08:53:24;;;;;;;8.55;4.22;;;;;;;21.23;74.44;95154.31;5070582;28;20327;-81
2023/09/30 08:55:54;;;;;;;9.70;4.28;;;;;;;21.48;77.05;95150.00;5057090;28;20076;-81
2023/09/30 08:58:19;;;;;;;13.18;5.30;;;;;;;21.44;73.69;95151.75;5072215;28;20084;-82
2023/09/30 09:00:45;;;;;;;12.88;4.70;;;;;;;21.37;72.36;95151.44;5072327;28;20025;-82
2023/09/30 09:03:11;;;;;;;10.98;6.15;;;;;;;21.51;76.17;95151.28;5055681;28;20057;-81
2023/09/30 09:05:36;;;;;;;9.48;4.18;;;;;;;21.55;71.99;95153.00;5072174;28;20028;-82
2023/09/30 09:08:02;;;;;;;7.15;3.90;;;;;;;21.59;70.17;95156.56;5072193;28;20350;-80
2023/09/30 09:10:28;;;;;;;8.27;4.30;;;;;;;21.63;69.84;95154.06;5072071;28;20112;-82
2023/09/30 09:12:58;;;;;;;18.63;4.30;;;;;;;21.78;68.94;95155.44;5068736;28;20075;-81
2023/09/30 09:15:25;;;;;;;6.30;3.92;;;;;;;21.86;66.54;95162.63;5055544;28;20035;-81
2023/09/30 09:17:51;;;;;;;14.20;3.90;;;;;;;21.83;67.91;95159.81;5038949;28;20029;-81
2023/09/30 09:20:21;;;;;;;6.85;3.78;;;;;;;21.84;58.34;95164.84;5054560;28;20032;-82
2023/09/30 09:22:55;;;;;;;6.53;3.33;;;;;;;21.82;56.65;95167.06;5046073;28;20048;-81
2023/09/30 09:25:24;;;;;;;12.02;4.03;;;;;;;22.12;61.31;95166.28;5039596;28;20021;-82
2023/09/30 09:27:51;;;;;;;9.02;3.80;;;;;;;22.28;57.66;95169.19;5039229;28;20025;-82
2023/09/30 09:30:24;;;;;;;14.85;4.45;;;;;;;22.30;61.45;95167.75;5055228;28;20119;-82
2023/09/30 09:33:04;;;;;;;7.82;4.05;;;;;;;22.46;61.94;95173.31;5055588;28;20418;-82
2023/09/30 09:35:34;;;;;;;11.02;4.70;;;;;;;22.49;62.13;95169.25;5039140;28;20032;-81
2023/09/30 09:38:07;;;;;;;8.68;4.40;;;;;;;22.41;62.43;95167.38;5038805;28;20060;-82
2023/09/30 09:40:40;;;;;;;10.88;4.45;;;;;;;22.52;65.22;95155.25;5055373;28;20359;-82
2023/09/30 09:43:06;;;;;;;11.02;4.70;;;;;;;22.52;63.51;95152.59;5039168;28;20052;-82
2023/09/30 09:45:37;;;;;;;13.35;5.03;;;;;;;22.56;62.89;95150.06;5055504;28;20369;-82
2023/09/30 09:48:04;;;;;;;15.98;5.35;;;;;;;22.48;61.36;95148.22;5055296;28;20477;-82
2023/09/30 09:50:31;;;;;;;6.68;4.47;;;;;;;22.51;61.00;95147.56;5073540;28;20025;-82
2023/09/30 09:52:59;;;;;;;9.30;4.45;;;;;;;22.71;62.48;95146.00;5059514;28;20056;-82
2023/09/30 09:55:27;;;;;;;10.68;4.20;;;;;;;22.74;62.11;95138.13;5059341;28;20060;-82
2023/09/30 09:57:52;;;;;;;13.93;4.07;;;;;;;22.77;59.72;95128.69;5059189;28;20027;-82
2023/09/30 10:00:22;;;;;;;12.52;4.20;;;;;;;22.84;62.18;95133.50;5042481;28;20042;-81
2023/09/30 10:02:47;;;;;;;9.80;4.50;;;;;;;22.99;62.49;95134.78;5058957;28;20115;-82
2023/09/30 10:05:14;;;;;;;12.95;4.47;;;;;;;23.13;63.62;95139.84;5059018;28;20091;-82
2023/09/30 10:08:03;;;;;;;13.60;4.97;;;;;;;23.16;64.05;95152.53;5058987;28;20372;-83
2023/09/30 10:10:28;;;;;;;16.67;5.18;;;;;;;23.27;63.19;95151.06;5059199;28;20035;-82
2023/09/30 10:12:54;;;;;;;8.10;4.97;;;;;;;23.14;63.46;95154.78;5059035;28;20029;-82
2023/09/30 10:15:25;;;;;;;12.10;5.03;;;;;;;22.74;66.59;95151.47;5042073;28;20123;-82
2023/09/30 10:17:57;;;;;;;14.63;4.80;;;;;;;22.89;66.29;95149.31;5041653;28;20029;-82
2023/09/30 10:20:30;;;;;;;12.20;4.38;;;;;;;22.95;64.30;95149.91;5052419;28;20029;-81
2023/09/30 10:23:18;;;;;;;13.68;5.10;;;;;;;23.09;64.06;95153.09;5059691;28;20036;-80
2023/09/30 10:25:47;;;;;;;10.30;5.32;;;;;;;22.94;65.62;95154.47;5058615;28;20114;-80
2023/09/30 10:28:37;;;;;;;9.07;4.97;;;;;;;23.17;65.36;95148.75;5058261;28;20029;-80
2023/09/30 10:31:24;;;;;;;14.48;4.90;;;;;;;23.43;64.96;95147.75;5046233;28;20037;-81
2023/09/30 10:34:02;;;;;;;20.70;5.03;;;;;;;23.33;65.99;95145.50;5054098;28;20030;-79
2023/09/30 10:36:39;;;;;;;9.13;4.55;;;;;;;23.49;65.35;95132.28;5052461;28;20083;-79
2023/09/30 10:39:08;;;;;;;10.10;4.30;;;;;;;23.63;66.63;95135.44;5058490;28;20426;-80
2023/09/30 10:41:47;;;;;;;8.20;4.53;;;;;;;23.67;63.98;95144.34;5055559;28;20103;-80
2023/09/30 10:44:31;;;;;;;10.40;4.40;;;;;;;23.81;64.34;95133.31;5055142;28;20045;-79
2023/09/30 10:47:00;;;;;;;13.40;5.07;;;;;;;23.79;63.70;95140.91;5039317;28;20022;-80
2023/09/30 10:49:25;;;;;;;13.15;5.38;;;;;;;23.86;60.55;95133.09;5039095;28;20051;-80
2023/09/30 10:51:51;;;;;;;9.50;5.30;;;;;;;23.90;61.17;95140.47;5054647;28;20029;-79
2023/09/30 10:54:25;;;;;;;11.52;5.13;;;;;;;23.83;62.03;95141.00;5038475;28;20053;-79
2023/09/30 10:56:52;;;;;;;9.15;4.80;;;;;;;23.94;62.66;95138.66;5049893;28;20029;-80
2023/09/30 10:59:25;;;;;;;16.70;4.97;;;;;;;23.80;61.84;95147.81;5055385;28;20323;-79
2023/09/30 11:01:51;;;;;;;9.10;4.70;;;;;;;24.01;59.81;95145.03;5059554;28;20032;-79
2023/09/30 11:04:20;;;;;;;18.65;5.03;;;;;;;23.91;59.39;95139.34;5058072;28;20024;-80
2023/09/30 11:06:46;;;;;;;11.68;4.30;;;;;;;23.79;60.54;95150.84;5057797;28;20054;-82
2023/09/30 11:09:19;;;;;;;8.35;4.28;;;;;;;23.72;59.80;95154.81;5057842;28;20059;-80
2023/09/30 11:11:50;;;;;;;10.27;5.03;;;;;;;23.88;58.34;95164.09;5074292;28;20028;-80
2023/09/30 11:14:27;;;;;;;14.32;4.40;;;;;;;24.16;57.88;95153.53;5057653;28;20031;-80
2023/09/30 11:16:54;;;;;;;8.60;4.07;;;;;;;24.01;59.12;95163.00;5057668;28;20131;-80
2023/09/30 11:19:21;;;;;;;10.90;5.45;;;;;;;23.55;57.94;95166.50;5057529;28;20118;-81
2023/09/30 11:21:48;;;;;;;9.80;4.63;;;;;;;23.71;58.92;95150.59;5057333;28;20163;-79
2023/09/30 11:24:14;;;;;;;7.50;4.13;;;;;;;24.18;59.64;95151.31;5057766;28;20052;-80